createdAt,value
2023-03-28T00:01:48.722Z,101710.56
2023-03-28T00:04:23.039Z,101699.94
2023-03-28T00:06:53.708Z,101718.22
2023-03-28T00:09:23.816Z,101727.16
2023-03-28T00:11:53.628Z,101711.91
2023-03-28T00:14:23.496Z,101729.19
2023-03-28T00:16:55.838Z,101736.19
2023-03-28T00:19:25.719Z,101731.03
2023-03-28T00:21:57.682Z,101712.38
2023-03-28T00:24:28.354Z,101738.50
2023-03-28T00:27:00.586Z,101731.09
2023-03-28T00:29:31.335Z,101680.72
2023-03-28T00:32:03.977Z,101739.06
2023-03-28T00:34:33.757Z,101730.22
2023-03-28T00:37:04.836Z,101733.16
2023-03-28T00:39:34.730Z,101742.75
2023-03-28T00:42:04.664Z,101734.56
2023-03-28T00:44:49.661Z,101742.94
2023-03-28T00:47:36.965Z,101737.25
2023-03-28T00:50:12.519Z,101733.78
2023-03-28T00:52:46.741Z,101723.47
2023-03-28T00:55:22.202Z,101740.00
2023-03-28T00:57:53.235Z,101753.16
2023-03-28T01:00:23.753Z,101750.72
2023-03-28T01:03:01.756Z,101732.97
2023-03-28T01:05:35.471Z,101753.69
2023-03-28T01:08:10.965Z,101746.00
2023-03-28T01:10:40.968Z,101763.72
2023-03-28T01:13:12.236Z,101766.72
2023-03-28T01:15:42.891Z,101765.13
2023-03-28T01:18:16.551Z,101760.06
2023-03-28T01:21:10.530Z,101782.16
2023-03-28T01:24:12.161Z,101784.38
2023-03-28T01:26:51.757Z,101801.84
2023-03-28T01:30:04.833Z,101780.78
2023-03-28T01:33:24.475Z,101749.50
2023-03-28T01:36:33.885Z,101774.22
2023-03-28T01:39:16.159Z,101794.88
2023-03-28T01:41:53.512Z,101796.69
2023-03-28T01:44:33.816Z,101773.75
2023-03-28T01:47:11.122Z,101791.72
2023-03-28T01:49:47.365Z,101793.38
2023-03-28T01:52:23.355Z,101790.28
2023-03-28T01:55:07.705Z,101793.94
2023-03-28T01:57:44.208Z,101800.53
2023-03-28T02:00:22.496Z,101794.72
2023-03-28T02:03:18.843Z,101802.28
2023-03-28T02:05:58.553Z,101791.06
2023-03-28T02:08:31.869Z,101763.19
2023-03-28T02:11:22.931Z,101787.00
2023-03-28T02:14:24.225Z,101788.81
2023-03-28T02:17:19.394Z,101788.59
2023-03-28T02:20:14.802Z,101797.09
2023-03-28T02:23:04.200Z,101778.50
2023-03-28T02:25:49.978Z,101805.13
2023-03-28T02:28:48.924Z,101806.13
2023-03-28T02:31:40.846Z,101803.00
2023-03-28T02:34:12.442Z,101802.03
2023-03-28T02:36:50.320Z,101795.31
2023-03-28T02:39:46.995Z,101808.25
2023-03-28T02:42:37.771Z,101793.59
2023-03-28T02:45:25.909Z,101797.84
2023-03-28T02:48:08.368Z,101786.25
2023-03-28T02:50:46.653Z,101789.97
2023-03-28T02:53:27.278Z,101793.47
2023-03-28T02:56:02.157Z,101803.44
2023-03-28T02:58:56.419Z,101797.13
2023-03-28T03:01:29.395Z,101804.22
2023-03-28T03:04:00.890Z,101812.34
2023-03-28T03:06:30.729Z,101801.41
2023-03-28T03:09:00.987Z,101810.84
2023-03-28T03:11:30.917Z,101803.09
2023-03-28T03:14:01.254Z,101805.16
2023-03-28T03:16:38.701Z,101806.34
2023-03-28T03:19:10.236Z,101815.28
2023-03-28T03:21:41.714Z,101801.38
2023-03-28T03:24:12.270Z,101812.13
2023-03-28T03:26:45.871Z,101801.09
2023-03-28T03:29:19.251Z,101807.69
2023-03-28T03:31:51.889Z,101802.84
2023-03-28T03:34:41.557Z,101804.41
2023-03-28T03:37:11.895Z,101803.06
2023-03-28T03:39:41.646Z,101810.72
2023-03-28T03:42:11.479Z,101812.38
2023-03-28T03:44:41.257Z,101815.88
2023-03-28T03:47:13.979Z,101799.78
2023-03-28T03:49:43.751Z,101796.25
2023-03-28T03:52:14.592Z,101812.16
2023-03-28T03:54:44.566Z,101813.00
2023-03-28T03:57:15.686Z,101810.97
2023-03-28T03:59:45.593Z,101815.44
2023-03-28T04:02:21.726Z,101827.56
2023-03-28T04:05:02.252Z,101820.34
2023-03-28T04:07:47.081Z,101821.22
2023-03-28T04:10:29.411Z,101839.09
2023-03-28T04:12:59.178Z,101831.31
2023-03-28T04:15:28.981Z,101835.78
2023-03-28T04:18:20.707Z,101826.38
2023-03-28T04:20:55.942Z,101828.13
2023-03-28T04:23:43.811Z,101837.03
2023-03-28T04:26:39.757Z,101842.72
2023-03-28T04:29:13.611Z,101823.25
2023-03-28T04:31:50.149Z,101824.84
2023-03-28T04:34:45.983Z,101831.22
2023-03-28T04:37:21.580Z,101842.09
2023-03-28T04:39:55.982Z,101846.13
2023-03-28T04:42:49.424Z,101830.72
2023-03-28T04:45:26.581Z,101849.72
2023-03-28T04:47:57.352Z,101862.75
2023-03-28T04:50:30.852Z,101845.13
2023-03-28T04:53:00.586Z,101867.38
2023-03-28T04:55:31.739Z,101868.28
2023-03-28T04:58:03.539Z,101864.09
2023-03-28T05:00:33.605Z,101866.31
2023-03-28T05:03:05.030Z,101878.78
2023-03-28T05:05:48.348Z,101835.00
2023-03-28T05:08:20.423Z,101859.81
2023-03-28T05:10:50.667Z,101896.88
2023-03-28T05:13:21.354Z,101893.66
2023-03-28T05:16:03.333Z,101887.53
2023-03-28T05:18:59.174Z,101868.50
2023-03-28T05:21:51.930Z,101894.09
2023-03-28T05:24:21.688Z,101906.63
2023-03-28T05:26:51.462Z,101892.81
2023-03-28T05:29:25.501Z,101901.97
2023-03-28T05:31:56.106Z,101908.22
2023-03-28T05:34:32.216Z,101895.63
2023-03-28T05:37:04.775Z,101916.84
2023-03-28T05:39:45.240Z,101919.25
2023-03-28T05:42:16.117Z,101929.38
2023-03-28T05:44:45.989Z,101927.97
2023-03-28T05:47:39.290Z,101892.72
2023-03-28T05:50:10.971Z,101944.63
2023-03-28T05:52:43.483Z,101927.41
2023-03-28T05:55:13.471Z,101923.09
2023-03-28T05:57:44.308Z,101946.41
2023-03-28T06:00:19.517Z,101938.19
2023-03-28T06:02:50.698Z,101940.91
2023-03-28T06:05:24.108Z,101935.31
2023-03-28T06:07:56.975Z,101934.88
2023-03-28T06:10:27.732Z,101937.50
2023-03-28T06:13:17.647Z,101940.66
2023-03-28T06:15:49.558Z,101939.72
2023-03-28T06:18:21.126Z,101959.88
2023-03-28T06:20:52.582Z,101942.84
2023-03-28T06:23:25.972Z,101951.44
2023-03-28T06:25:56.053Z,101933.31
2023-03-28T06:28:26.355Z,101951.25
2023-03-28T06:31:31.573Z,101955.81
2023-03-28T06:34:01.414Z,101942.66
2023-03-28T06:36:31.476Z,101936.03
2023-03-28T06:39:03.884Z,101940.09
2023-03-28T06:41:35.160Z,101956.03
2023-03-28T06:44:06.034Z,101952.13
2023-03-28T06:46:54.499Z,101967.84
2023-03-28T06:49:24.423Z,101958.06
2023-03-28T06:52:12.692Z,101970.63
2023-03-28T06:54:48.489Z,101983.97
2023-03-28T06:57:18.838Z,101975.16
2023-03-28T06:59:51.742Z,101942.72
2023-03-28T07:02:27.871Z,101981.22
2023-03-28T07:05:03.346Z,101973.28
2023-03-28T07:07:33.288Z,101977.16
2023-03-28T07:10:06.057Z,101961.22
2023-03-28T07:12:36.053Z,101985.38
2023-03-28T07:15:06.161Z,101983.25
2023-03-28T07:17:36.102Z,101965.53
2023-03-28T07:20:06.914Z,101991.03
2023-03-28T07:22:36.745Z,101991.03
2023-03-28T07:25:10.809Z,101999.91
2023-03-28T07:27:44.049Z,101915.19
2023-03-28T07:30:19.224Z,101980.94
2023-03-28T07:32:58.193Z,101930.06
2023-03-28T07:35:36.482Z,101988.69
2023-03-28T07:38:08.164Z,101935.72
2023-03-28T07:40:53.665Z,101931.31
2023-03-28T07:43:26.303Z,101938.59
2023-03-28T07:46:07.422Z,102016.94
2023-03-28T07:48:41.626Z,101952.50
2023-03-28T07:51:15.873Z,101986.00
2023-03-28T07:53:49.192Z,102026.41
2023-03-28T07:56:26.804Z,102020.13
2023-03-28T07:59:16.118Z,101947.38
2023-03-28T08:01:53.824Z,101922.09
2023-03-28T08:04:27.760Z,101959.06
2023-03-28T08:07:08.703Z,101954.69
2023-03-28T08:09:43.410Z,101973.13
2023-03-28T08:12:24.192Z,101944.56
2023-03-28T08:14:56.363Z,101952.44
2023-03-28T08:17:32.303Z,102023.19
2023-03-28T08:20:07.504Z,101942.63
2023-03-28T08:23:04.178Z,101954.38
2023-03-28T08:25:58.447Z,101966.38
2023-03-28T08:28:39.199Z,102030.91
2023-03-28T08:31:14.972Z,101965.81
2023-03-28T08:33:52.327Z,101964.69
2023-03-28T08:36:31.847Z,101958.59
2023-03-28T08:39:06.609Z,102038.09
2023-03-28T08:41:59.426Z,101955.78
2023-03-28T08:44:58.657Z,102004.50
2023-03-28T08:47:33.916Z,102027.25
2023-03-28T08:50:13.430Z,101973.72
2023-03-28T08:52:49.528Z,101972.56
2023-03-28T08:55:36.636Z,101995.59
2023-03-28T08:58:14.201Z,101969.53
2023-03-28T11:59:13.542Z,101970.06
2023-03-28T13:02:14.798Z,101896.50
2023-03-28T13:05:28.253Z,101789.00
2023-03-28T13:09:45.240Z,101814.69
2023-03-28T13:13:30.334Z,101896.81
2023-03-28T13:17:46.421Z,101705.97
2023-03-28T13:22:03.037Z,101824.50
2023-03-28T13:25:35.919Z,101888.53
2023-03-28T13:36:51.958Z,101652.19
2023-03-28T13:43:57.527Z,101802.78
2023-03-28T13:46:36.064Z,101832.09
2023-03-28T13:49:10.495Z,101849.91
2023-03-28T13:51:47.888Z,101849.75
2023-03-28T13:54:18.061Z,101845.16
2023-03-28T13:56:49.206Z,101852.13
2023-03-28T13:59:21.314Z,101833.88
2023-03-28T14:01:52.906Z,101834.88
2023-03-28T14:04:24.304Z,101829.13
2023-03-28T14:06:57.886Z,101844.81
2023-03-28T14:09:34.359Z,101837.50
2023-03-28T14:12:07.468Z,101841.25
2023-03-28T14:14:40.480Z,101793.22
2023-03-28T14:17:14.973Z,101831.81
2023-03-28T14:19:48.631Z,101831.03
2023-03-28T14:22:23.671Z,101800.53
2023-03-28T14:24:55.856Z,101827.03
2023-03-28T14:27:38.248Z,101832.25
2023-03-28T14:30:20.597Z,101817.19
2023-03-28T14:33:01.580Z,101786.16
2023-03-28T14:35:33.199Z,101774.88
2023-03-28T14:38:07.390Z,101798.06
2023-03-28T14:40:39.823Z,101794.72
2023-03-28T14:43:22.529Z,101769.69
2023-03-28T14:45:56.405Z,101792.97
2023-03-28T14:48:29.362Z,101755.00
2023-03-28T14:51:04.132Z,101757.94
2023-03-28T14:53:39.996Z,101770.44
2023-03-28T14:56:16.456Z,101695.50
2023-03-28T14:58:50.147Z,101768.19
2023-03-28T15:01:23.688Z,101750.25
2023-03-28T15:03:59.404Z,101751.13
2023-03-28T15:06:29.738Z,101738.22
2023-03-28T15:09:11.387Z,101751.59
2023-03-28T15:11:44.848Z,101729.72
2023-03-28T15:14:21.921Z,101719.28
2023-03-28T15:16:52.140Z,101721.59
2023-03-28T15:19:27.352Z,101717.22
2023-03-28T15:22:00.588Z,101698.09
2023-03-28T15:24:34.176Z,101719.66
2023-03-28T15:27:04.761Z,101723.97
2023-03-28T15:29:38.601Z,101729.00
2023-03-28T15:32:14.752Z,101733.63
2023-03-28T15:34:47.852Z,101715.25
2023-03-28T15:37:22.707Z,101696.38
2023-03-28T15:39:55.449Z,101710.63
2023-03-28T15:42:37.292Z,101697.22
2023-03-28T15:45:27.217Z,101706.13
2023-03-28T15:47:58.648Z,101708.16
2023-03-28T15:50:33.372Z,101705.25
2023-03-28T15:53:06.549Z,101699.56
2023-03-28T15:55:38.963Z,101691.47
2023-03-28T15:58:09.168Z,101693.94
2023-03-28T16:00:46.895Z,101666.91
2023-03-28T16:03:34.723Z,101619.38
2023-03-28T16:06:30.798Z,101691.50
2023-03-28T16:09:17.138Z,101686.47
2023-03-28T16:11:52.849Z,101688.50
2023-03-28T16:14:49.718Z,101688.91
2023-03-28T16:17:27.264Z,101670.38
2023-03-28T16:20:16.566Z,101699.97
2023-03-28T16:22:46.918Z,101687.53
2023-03-28T16:25:17.485Z,101686.13
2023-03-28T16:27:49.898Z,101670.38
2023-03-28T16:30:23.275Z,101682.75
2023-03-28T16:32:53.115Z,101676.13
2023-03-28T16:35:23.066Z,101662.41
2023-03-28T16:37:52.898Z,101661.50
2023-03-28T16:40:22.792Z,101659.44
2023-03-28T16:42:55.664Z,101621.91
2023-03-28T16:45:25.641Z,101645.28
2023-03-28T16:47:55.585Z,101624.50
2023-03-28T16:50:25.396Z,101640.09
2023-03-28T16:52:55.179Z,101631.88
2023-03-28T16:55:24.955Z,101644.47
2023-03-28T16:57:57.326Z,101581.41
2023-03-28T17:00:35.291Z,101614.31
2023-03-28T17:03:05.467Z,101630.81
2023-03-28T17:05:35.405Z,101625.16
2023-03-28T17:08:05.348Z,101628.59
2023-03-28T17:10:35.395Z,101597.94
2023-03-28T17:13:07.804Z,101617.41
2023-03-28T17:15:38.257Z,101601.63
2023-03-28T17:18:08.376Z,101587.84
2023-03-28T17:20:38.302Z,101586.25
2023-03-28T17:23:08.053Z,101588.09
2023-03-28T17:25:48.217Z,101587.56
2023-03-28T17:28:24.613Z,101580.28
2023-03-28T17:30:54.451Z,101576.84
2023-03-28T17:33:25.033Z,101549.56
2023-03-28T17:35:54.863Z,101584.03
2023-03-28T17:38:24.684Z,101589.53
2023-03-28T17:40:56.527Z,101576.13
2023-03-28T17:43:28.842Z,101582.56
2023-03-28T17:45:58.753Z,101569.50
2023-03-28T17:48:28.831Z,101579.31
2023-03-28T17:50:58.665Z,101585.09
2023-03-28T17:53:28.428Z,101585.88
2023-03-28T17:55:59.205Z,101546.84
2023-03-28T17:58:32.013Z,101589.59
2023-03-28T18:01:02.281Z,101596.31
2023-03-28T18:03:32.551Z,101578.19
2023-03-28T18:06:24.356Z,101564.28
2023-03-28T18:08:54.094Z,101569.56
2023-03-28T18:11:24.184Z,101587.91
2023-03-28T18:13:58.965Z,101594.00
2023-03-28T18:16:29.289Z,101590.41
2023-03-28T18:18:59.707Z,101579.41
2023-03-28T18:21:30.286Z,101570.97
2023-03-28T18:23:59.995Z,101564.84
2023-03-28T18:26:31.740Z,101571.66
2023-03-28T18:29:04.041Z,101545.63
2023-03-28T18:31:34.003Z,101557.25
2023-03-28T18:34:05.328Z,101569.91
2023-03-28T18:36:37.031Z,101560.44
2023-03-28T18:39:10.538Z,101558.56
2023-03-28T18:41:40.968Z,101544.28
2023-03-28T18:44:13.629Z,101559.81
2023-03-28T18:46:43.564Z,101558.53
2023-03-28T18:49:14.257Z,101557.00
2023-03-28T18:51:44.065Z,101526.50
2023-03-28T18:54:13.775Z,101522.44
2023-03-28T18:56:43.716Z,101523.84
2023-03-28T18:59:17.783Z,101512.88
2023-03-28T19:01:51.685Z,101502.44
2023-03-28T19:04:23.388Z,101513.22
2023-03-28T19:06:53.583Z,101509.69
2023-03-28T19:09:23.575Z,101500.94
2023-03-28T19:11:55.227Z,101523.75
2023-03-28T19:14:27.597Z,101520.47
2023-03-28T19:16:57.451Z,101502.34
2023-03-28T19:19:27.861Z,101477.75
2023-03-28T19:21:57.766Z,101490.38
2023-03-28T19:24:27.565Z,101508.63
2023-03-28T19:26:59.343Z,101517.31
2023-03-28T19:29:32.276Z,101499.53
2023-03-28T19:32:02.078Z,101503.63
2023-03-28T19:34:31.909Z,101493.97
2023-03-28T19:37:02.038Z,101501.91
2023-03-28T19:39:31.764Z,101489.75
2023-03-28T19:42:01.541Z,101499.22
2023-03-28T19:44:33.997Z,101492.84
2023-03-28T19:47:03.866Z,101470.41
2023-03-28T19:49:33.741Z,101482.22
2023-03-28T19:52:05.369Z,101464.78
2023-03-28T19:54:35.097Z,101474.16
2023-03-28T19:57:07.563Z,101486.66
2023-03-28T19:59:40.893Z,101487.25
2023-03-28T20:02:12.802Z,101453.44
2023-03-28T20:04:42.564Z,101480.72
2023-03-28T20:07:12.857Z,101432.78
2023-03-28T20:09:48.827Z,101481.97
2023-03-28T20:12:19.166Z,101452.28
2023-03-28T20:14:51.516Z,101476.91
2023-03-28T20:17:21.254Z,101470.09
2023-03-28T20:19:51.710Z,101460.00
2023-03-28T20:22:24.539Z,101455.91
2023-03-28T20:24:54.417Z,101443.06
2023-03-28T20:27:25.240Z,101455.66
2023-03-28T20:29:58.111Z,101459.38
2023-03-28T20:32:27.944Z,101449.88
2023-03-28T20:34:57.667Z,101445.75
2023-03-28T20:37:27.555Z,101444.91
2023-03-28T20:39:57.487Z,101408.63
2023-03-28T20:42:30.272Z,101442.50
2023-03-28T20:45:03.015Z,101434.72
2023-03-28T20:47:32.854Z,101418.06
2023-03-28T20:50:05.786Z,101403.44
2023-03-28T20:52:38.907Z,101421.75
2023-03-28T20:55:10.378Z,101428.84
2023-03-28T20:57:41.970Z,101421.72
2023-03-28T21:00:17.114Z,101429.69
2023-03-28T21:02:54.150Z,101399.69
2023-03-28T21:05:24.992Z,101418.16
2023-03-28T21:07:55.575Z,101402.44
2023-03-28T21:10:25.707Z,101413.59
2023-03-28T21:12:55.413Z,101414.03
2023-03-28T21:15:29.206Z,101399.84
2023-03-28T21:17:59.297Z,101374.16
2023-03-28T21:20:29.239Z,101385.47
2023-03-28T21:22:59.944Z,101401.69
2023-03-28T21:25:29.641Z,101372.34
2023-03-28T21:27:59.475Z,101394.00
2023-03-28T21:30:31.787Z,101389.06
2023-03-28T21:33:04.020Z,101387.38
2023-03-28T21:35:34.208Z,101381.53
2023-03-28T21:38:04.045Z,101369.78
2023-03-28T21:40:33.786Z,101378.56
2023-03-28T21:43:03.597Z,101363.44
2023-03-28T21:45:36.269Z,101349.22
2023-03-28T21:48:06.269Z,101371.78
2023-03-28T21:50:39.004Z,101345.56
2023-03-28T21:53:08.747Z,101389.66
2023-03-28T21:55:38.552Z,101370.59
2023-03-28T21:58:08.258Z,101358.78
2023-03-28T22:00:40.974Z,101371.19
2023-03-28T22:03:11.156Z,101378.78
2023-03-28T22:05:43.132Z,101359.16
2023-03-28T22:08:13.710Z,101349.00
2023-03-28T22:10:47.874Z,101355.06
2023-03-28T22:13:17.860Z,101339.06
2023-03-28T22:15:50.178Z,101339.63
2023-03-28T22:18:20.018Z,101328.56
2023-03-28T22:20:53.564Z,101355.66
2023-03-28T22:23:24.516Z,101337.31
2023-03-28T22:25:56.722Z,101351.81
2023-03-28T22:28:26.866Z,101338.28
2023-03-28T22:30:59.445Z,101353.31
2023-03-28T22:33:32.212Z,101341.50
2023-03-28T22:36:02.001Z,101344.75
2023-03-28T22:38:31.786Z,101295.44
2023-03-28T22:41:01.812Z,101324.84
2023-03-28T22:43:32.140Z,101289.72
2023-03-28T22:46:05.718Z,101342.91
2023-03-28T22:48:38.295Z,101340.25
2023-03-28T22:51:12.102Z,101337.38
2023-03-28T22:53:42.938Z,101306.53
2023-03-28T22:56:12.741Z,101344.59
2023-03-28T22:58:42.796Z,101342.66
2023-03-28T23:01:15.499Z,101331.78
2023-03-28T23:03:45.188Z,101340.66
2023-03-28T23:06:14.904Z,101322.09
2023-03-28T23:08:44.606Z,101324.84
2023-03-28T23:11:14.356Z,101338.88
2023-03-28T23:13:44.096Z,101330.72
2023-03-28T23:16:16.499Z,101281.16
2023-03-28T23:18:46.522Z,101335.53
2023-03-28T23:21:16.223Z,101321.19
2023-03-28T23:23:46.639Z,101318.91
2023-03-28T23:26:17.971Z,101307.63
2023-03-28T23:28:48.405Z,101284.34
2023-03-28T23:31:21.130Z,101255.44
2023-03-28T23:33:50.912Z,101316.47
2023-03-28T23:36:21.225Z,101302.91
2023-03-28T23:38:51.513Z,101317.63
2023-03-28T23:41:21.292Z,101289.72
2023-03-28T23:43:50.966Z,101301.84
2023-03-28T23:46:23.381Z,101310.59
2023-03-28T23:48:53.485Z,101299.19
2023-03-28T23:51:24.530Z,101307.66
2023-03-28T23:53:54.256Z,101308.94
2023-03-28T23:56:24.060Z,101307.47
2023-03-28T23:58:54.430Z,101315.41
